Time;durP1;ratioP1;P1;durP2;ratioP2;P2;SDS_P1;SDS_P2;PMS_P1;PMS_P2;Temp;Humidity;BMP_temperature;BMP_pressure;BME280_temperature;BME280_humidity;BME280_pressure;Samples;Min_cycle;Max_cycle;Signal;HPM_P1;HPM_P2
2021/03/22 00:01:09;;;;;;;23.75;17.00;;;;;;;1.08;60.67;97547.36;1760786;81;20982;-68
2021/03/22 00:03:38;;;;;;;24.37;17.32;;;;;;;1.03;60.70;97552.00;1760886;81;20927;-67
2021/03/22 00:06:06;;;;;;;22.77;15.28;;;;;;;1.00;60.61;97545.53;1760724;81;20951;-66
2021/03/22 00:08:34;;;;;;;21.35;15.90;;;;;;;0.95;60.58;97539.13;1760740;81;20994;-66
2021/03/22 00:11:01;;;;;;;30.45;18.27;;;;;;;0.91;60.87;97538.84;1760713;81;21389;-66
2021/03/22 00:13:30;;;;;;;24.52;18.17;;;;;;;0.90;60.89;97538.47;1760692;81;21364;-66
2021/03/22 00:16:04;;;;;;;25.72;17.07;;;;;;;0.88;61.18;97542.95;1760818;81;21352;-66
2021/03/22 00:18:37;;;;;;;25.45;18.07;;;;;;;0.88;61.56;97541.63;1764556;80;20946;-66
2021/03/22 00:21:06;;;;;;;28.75;17.85;;;;;;;0.88;61.78;97533.69;1766439;81;20998;-66
2021/03/22 00:23:34;;;;;;;22.80;16.55;;;;;;;0.87;62.38;97533.31;1766409;80;21354;-66
2021/03/22 00:26:03;;;;;;;22.67;15.85;;;;;;;0.86;63.02;97534.23;1766423;80;21013;-66
2021/03/22 00:28:38;;;;;;;25.72;16.48;;;;;;;0.87;63.30;97532.00;1766329;81;21049;-66
2021/03/22 00:31:03;;;;;;;22.58;15.18;;;;;;;0.87;63.39;97533.31;1766254;80;20998;-66
2021/03/22 00:33:31;;;;;;;20.60;15.00;;;;;;;0.88;63.42;97532.37;1766420;81;20930;-66
2021/03/22 00:35:59;;;;;;;18.50;14.80;;;;;;;0.88;63.61;97533.69;1766348;81;21295;-66
2021/03/22 00:38:27;;;;;;;17.50;13.75;;;;;;;0.88;63.90;97529.73;1766442;81;20950;-66
2021/03/22 00:40:56;;;;;;;21.27;15.05;;;;;;;0.90;64.75;97523.94;1764499;80;20986;-66
2021/03/22 00:43:25;;;;;;;19.45;13.50;;;;;;;0.91;65.55;97515.05;1766414;81;20946;-66
2021/03/22 00:46:01;;;;;;;22.25;16.50;;;;;;;0.91;65.50;97512.41;1766383;81;20938;-66
2021/03/22 00:48:31;;;;;;;27.85;18.67;;;;;;;0.89;62.75;97505.02;1766376;81;21379;-66
2021/03/22 00:51:00;;;;;;;20.35;16.10;;;;;;;0.91;63.65;97503.16;1766406;80;21503;-66
2021/03/22 00:53:28;;;;;;;32.48;18.23;;;;;;;0.94;64.80;97502.17;1766445;81;20950;-66
2021/03/22 00:55:56;;;;;;;19.67;15.98;;;;;;;0.95;64.80;97506.06;1766340;80;20950;-66
2021/03/22 00:58:24;;;;;;;23.75;17.05;;;;;;;0.96;64.44;97505.12;1766371;81;20938;-65
2021/03/22 01:00:54;;;;;;;16.70;14.25;;;;;;;0.97;63.47;97501.56;1766316;80;21450;-67
2021/03/22 01:03:25;;;;;;;16.82;12.50;;;;;;;1.00;61.92;97507.19;1766388;81;20986;-67
2021/03/22 01:05:54;;;;;;;15.68;12.78;;;;;;;0.99;59.91;97495.73;1766415;81;20950;-66
2021/03/22 01:08:23;;;;;;;12.47;9.28;;;;;;;1.02;57.94;97496.06;1766343;81;20937;-65
2021/03/22 01:10:55;;;;;;;12.43;10.03;;;;;;;1.01;56.68;97482.00;1766360;81;20939;-65
2021/03/22 01:13:29;;;;;;;13.72;9.85;;;;;;;1.04;56.85;97483.17;1766369;81;21202;-66
2021/03/22 01:15:59;;;;;;;12.40;9.83;;;;;;;1.07;56.80;97488.33;1763520;81;20910;-64
2021/03/22 01:18:33;;;;;;;13.75;10.10;;;;;;;1.10;56.48;97481.17;1766181;80;20934;-65
2021/03/22 01:21:10;;;;;;;20.57;13.60;;;;;;;1.12;56.17;97479.30;1766442;81;21470;-65
2021/03/22 01:23:39;;;;;;;16.42;14.58;;;;;;;1.12;56.42;97479.30;1766400;80;21077;-65
2021/03/22 01:26:08;;;;;;;24.30;15.85;;;;;;;1.13;57.18;97471.77;1766436;81;22271;-66
2021/03/22 01:28:37;;;;;;;17.95;13.70;;;;;;;1.12;57.77;97471.37;1766328;81;21538;-67
2021/03/22 01:31:05;;;;;;;19.12;13.93;;;;;;;1.10;58.06;97461.34;1766368;81;21570;-67
2021/03/22 01:33:37;;;;;;;15.90;12.65;;;;;;;1.08;58.01;97466.22;1766364;81;20943;-67
2021/03/22 01:36:15;;;;;;;15.40;12.28;;;;;;;1.07;57.88;97464.53;1776172;79;21058;-66
2021/03/22 01:38:44;;;;;;;13.43;11.68;;;;;;;1.06;58.03;97469.89;1813322;78;21353;-65
2021/03/22 01:41:38;;;;;;;18.92;13.35;;;;;;;1.05;58.26;97471.65;1792837;79;20955;-65
2021/03/22 01:44:14;;;;;;;15.13;11.60;;;;;;;1.06;58.36;97471.20;1813178;79;21341;-65
2021/03/22 01:46:58;;;;;;;12.80;10.43;;;;;;;1.05;58.44;97474.30;1813118;79;20924;-65
2021/03/22 01:49:40;;;;;;;11.93;9.50;;;;;;;1.04;57.87;97476.56;1813119;78;20999;-65
2021/03/22 01:52:09;;;;;;;8.20;7.03;;;;;;;1.05;57.56;97475.62;1812917;79;21422;-66
2021/03/22 01:54:38;;;;;;;7.42;5.40;;;;;;;1.02;56.61;97471.79;1813108;79;21027;-66
2021/03/22 01:57:32;;;;;;;11.15;6.22;;;;;;;1.03;56.20;97471.34;1813167;79;20908;-66
2021/03/22 02:00:28;;;;;;;6.75;5.55;;;;;;;1.01;55.92;97480.67;1813181;79;20986;-66
2021/03/22 02:03:13;;;;;;;;;;;;;;;1.00;55.87;97472.34;1815768;79;21365;-66
2021/03/22 02:05:50;;;;;;;7.42;5.87;;;;;;;0.99;56.15;97466.64;1813300;79;22282;-66
2021/03/22 02:08:22;;;;;;;6.25;4.83;;;;;;;0.97;56.15;97460.58;1813092;79;21034;-66
2021/03/22 02:10:50;;;;;;;5.92;5.00;;;;;;;0.96;56.46;97457.52;1813279;79;20936;-67
2021/03/22 02:13:22;;;;;;;7.65;5.17;;;;;;;0.97;56.38;97457.08;1813084;79;21007;-66
2021/03/22 02:15:56;;;;;;;6.35;4.97;;;;;;;0.96;56.44;97449.59;1813109;79;21023;-66
2021/03/22 02:18:52;;;;;;;6.30;4.65;;;;;;;0.96;56.16;97454.87;1813238;79;22119;-67
2021/03/22 02:21:41;;;;;;;4.72;4.25;;;;;;;0.95;55.51;97451.02;1813035;79;21042;-65
2021/03/22 02:24:53;;;;;;;5.95;4.83;;;;;;;0.94;55.62;97452.78;1813167;78;20983;-66
2021/03/22 02:27:49;;;;;;;5.97;4.62;;;;;;;0.93;55.73;97452.41;1813130;78;21437;-67
2021/03/22 02:31:09;;;;;;;5.12;4.58;;;;;;;0.91;55.94;97459.53;1813117;79;21023;-66
2021/03/22 02:34:23;;;;;;;4.35;3.58;;;;;;;0.91;56.14;97455.56;1813144;79;21322;-66
2021/03/22 02:37:20;;;;;;;5.58;4.50;;;;;;;0.88;56.95;97451.73;1812597;79;20904;-67
2021/03/22 02:40:11;;;;;;;6.00;4.78;;;;;;;0.88;57.31;97459.67;1813297;79;21023;-66
2021/03/22 02:42:43;;;;;;;5.83;5.22;;;;;;;0.88;57.48;97457.02;1813087;78;21527;-65
2021/03/22 02:45:21;;;;;;;4.85;4.40;;;;;;;0.87;57.82;97456.65;1793580;79;20921;-65
2021/03/22 02:47:50;;;;;;;5.45;4.67;;;;;;;0.86;57.80;97449.63;1812787;79;39171;-66
2021/03/22 02:50:41;;;;;;;5.83;4.53;;;;;;;0.88;58.58;97451.73;1813063;79;20980;-67
2021/03/22 02:53:24;;;;;;;;;;;;;;;0.87;59.39;97446.92;1729937;83;20959;-67
2021/03/22 02:56:09;;;;;;;5.90;4.87;;;;;;;0.85;59.64;97452.75;1727344;83;20183;-67
2021/03/22 02:58:46;;;;;;;7.70;5.20;;;;;;;0.82;59.85;97458.62;1713167;83;20943;-66
2021/03/22 03:01:34;;;;;;;9.50;5.45;;;;;;;0.81;60.37;97459.56;1727389;83;21455;-66
2021/03/22 03:04:03;;;;;;;4.78;4.10;;;;;;;0.78;60.64;97465.84;1727372;83;21006;-66
2021/03/22 03:06:46;;;;;;;5.03;4.00;;;;;;;0.77;61.00;97465.91;1727307;83;20931;-66
2021/03/22 03:09:15;;;;;;;3.92;3.22;;;;;;;0.77;61.27;97465.91;1727299;83;20998;-66
2021/03/22 03:11:43;;;;;;;5.37;4.35;;;;;;;0.74;61.76;97469.53;1727364;83;21486;-66
2021/03/22 03:14:10;;;;;;;5.35;4.80;;;;;;;0.73;62.25;97474.45;1727308;83;21407;-66
2021/03/22 03:16:42;;;;;;;5.22;4.45;;;;;;;0.70;62.77;97474.11;1727273;83;21070;-66
2021/03/22 03:19:10;;;;;;;4.05;3.67;;;;;;;0.69;63.35;97479.02;1727299;83;20946;-66
2021/03/22 03:21:39;;;;;;;7.40;4.62;;;;;;;0.67;63.61;97476.89;1727256;83;20951;-66
2021/03/22 03:27:18;;;;;;;6.33;5.37;;;;;;;0.62;64.62;97478.88;1770049;79;20968;-66
2021/03/22 03:29:47;;;;;;;8.55;5.78;;;;;;;0.59;65.02;97477.69;1772027;81;21402;-66
2021/03/22 03:32:19;;;;;;;6.30;5.37;;;;;;;0.58;65.37;97482.57;1771977;81;20984;-68
2021/03/22 03:34:48;;;;;;;6.05;5.20;;;;;;;0.57;65.70;97480.88;1772034;81;20912;-66
2021/03/22 03:37:16;;;;;;;6.05;5.45;;;;;;;0.55;66.47;97481.38;1772058;81;20962;-66
2021/03/22 03:39:44;;;;;;;6.58;5.47;;;;;;;0.51;66.97;97484.63;1771936;81;21397;-66
2021/03/22 03:42:14;;;;;;;5.62;5.12;;;;;;;0.49;67.27;97481.20;1771942;81;21015;-66
2021/03/22 03:44:41;;;;;;;7.00;5.40;;;;;;;0.49;67.65;97481.65;1772040;81;20986;-66
2021/03/22 03:47:09;;;;;;;6.35;5.70;;;;;;;0.47;67.81;97480.42;1772000;81;20917;-66
2021/03/22 03:49:38;;;;;;;6.17;5.58;;;;;;;0.46;68.07;97479.17;1772037;81;20916;-66
2021/03/22 03:52:27;;;;;;;6.92;5.85;;;;;;;0.45;68.62;97481.41;1772161;81;21451;-66
2021/03/22 03:54:58;;;;;;;6.30;5.33;;;;;;;0.42;68.72;97478.89;1763609;81;21046;-66
2021/03/22 03:57:25;;;;;;;5.90;5.22;;;;;;;0.42;69.00;97474.93;1763970;81;20922;-66
2021/03/22 03:59:52;;;;;;;8.68;7.00;;;;;;;0.40;69.60;97481.60;1763409;81;21022;-66
2021/03/22 04:05:32;;;;;;;6.05;5.05;;;;;;;0.38;70.10;97477.30;1742287;82;21397;-67
2021/03/22 04:08:01;;;;;;;6.30;4.83;;;;;;;0.35;70.21;97476.52;1742794;82;20950;-67
2021/03/22 04:10:30;;;;;;;8.50;6.58;;;;;;;0.35;70.32;97477.84;1742795;82;20938;-66
2021/03/22 04:12:58;;;;;;;6.17;5.15;;;;;;;0.34;70.38;97485.35;1742842;82;21478;-67
2021/03/22 04:15:28;;;;;;;6.90;5.97;;;;;;;0.33;70.49;97486.30;1742827;81;20887;-67
2021/03/22 04:17:55;;;;;;;6.45;5.85;;;;;;;0.35;70.63;97491.05;1742862;82;21205;-67
2021/03/22 04:20:25;;;;;;;6.62;5.67;;;;;;;0.35;70.59;97488.41;1742862;82;21037;-67
2021/03/22 04:22:57;;;;;;;6.58;5.42;;;;;;;0.34;70.68;97482.71;1743085;82;20994;-67
2021/03/22 04:25:25;;;;;;;6.90;6.22;;;;;;;0.37;70.63;97482.20;1742709;82;20990;-68
2021/03/22 04:27:53;;;;;;;6.15;5.55;;;;;;;0.37;70.78;97490.12;1742896;82;21352;-67
2021/03/22 04:30:23;;;;;;;7.20;5.35;;;;;;;0.38;70.88;97485.22;1742786;82;21398;-68
2021/03/22 04:32:51;;;;;;;5.12;4.60;;;;;;;0.37;70.92;97486.17;1742903;82;20986;-66
2021/03/22 04:35:24;;;;;;;6.97;5.03;;;;;;;0.38;70.98;97489.19;1742838;82;20958;-67
2021/03/22 04:37:54;;;;;;;7.10;5.80;;;;;;;0.37;71.06;97488.81;1742768;82;21034;-67
2021/03/22 04:40:24;;;;;;;9.85;6.85;;;;;;;0.35;71.12;97491.05;1742821;81;20927;-67
2021/03/22 04:42:52;;;;;;;6.92;5.42;;;;;;;0.35;71.28;97495.00;1742990;82;22267;-66
2021/03/22 04:45:24;;;;;;;8.48;6.08;;;;;;;0.37;71.38;97500.22;1742836;82;21321;-67
2021/03/22 04:47:51;;;;;;;7.50;6.70;;;;;;;0.39;71.73;97498.84;1742807;82;20943;-67
2021/03/22 04:50:21;;;;;;;10.03;6.70;;;;;;;0.38;72.06;97504.59;1742731;82;20895;-67
2021/03/22 04:52:51;;;;;;;7.00;6.30;;;;;;;0.38;72.71;97506.36;1742904;82;20934;-66
2021/03/22 04:55:20;;;;;;;7.10;6.40;;;;;;;0.35;72.72;97502.93;1742848;82;21350;-67
2021/03/22 04:57:47;;;;;;;8.80;7.42;;;;;;;0.35;73.10;97500.29;1742762;82;21049;-67
2021/03/22 05:00:30;;;;;;;11.40;10.10;;;;;;;0.34;73.11;97506.48;1742864;82;21013;-69
2021/03/22 05:03:00;;;;;;;13.55;12.18;;;;;;;0.35;73.61;97508.21;1742882;82;20933;-66
2021/03/22 05:05:29;;;;;;;16.77;12.78;;;;;;;0.34;74.04;97510.45;1748996;82;20950;-66
2021/03/22 05:07:59;;;;;;;14.85;13.35;;;;;;;0.34;74.48;97510.92;1750209;82;21442;-66
2021/03/22 05:10:33;;;;;;;17.67;13.00;;;;;;;0.34;74.69;97511.77;1750154;82;20994;-66
2021/03/22 05:13:02;;;;;;;;;;;;;;;0.34;75.13;97511.77;1752930;82;20899;-67
2021/03/22 05:15:30;;;;;;;22.95;15.58;;;;;;;0.33;75.51;97520.64;1750241;82;20130;-66
2021/03/22 05:17:59;;;;;;;27.17;20.60;;;;;;;0.32;76.01;97524.19;1750214;82;20879;-68
2021/03/22 05:20:37;;;;;;;22.90;17.92;;;;;;;0.31;76.43;97522.46;1750226;82;21198;-66
2021/03/22 05:23:11;;;;;;;21.62;16.90;;;;;;;0.30;76.74;97528.69;1750262;82;21009;-65
2021/03/22 05:25:42;;;;;;;28.05;21.17;;;;;;;0.30;77.10;97535.30;1750288;81;20931;-65
2021/03/22 05:28:10;;;;;;;34.00;23.77;;;;;;;0.30;77.39;97540.58;1750182;82;20939;-65
2021/03/22 05:30:39;;;;;;;35.23;25.75;;;;;;;0.31;77.44;97543.59;1750221;81;21383;-67
2021/03/22 05:33:11;;;;;;;36.95;25.43;;;;;;;0.28;78.05;97546.36;1750346;82;22123;-68
2021/03/22 05:35:41;;;;;;;38.80;27.30;;;;;;;0.29;78.00;97549.41;1750367;82;20958;-66
2021/03/22 05:38:09;;;;;;;35.55;25.55;;;;;;;0.29;78.12;97548.09;1750227;82;20930;-67
2021/03/22 05:40:49;;;;;;;35.38;25.10;;;;;;;0.27;78.47;97555.23;1750286;82;21014;-67
2021/03/22 05:43:44;;;;;;;34.03;25.68;;;;;;;0.28;78.58;97550.33;1750225;82;21347;-68
2021/03/22 05:46:25;;;;;;;40.40;28.62;;;;;;;0.28;78.84;97551.64;1750257;82;21386;-65
2021/03/22 05:49:13;;;;;;;36.25;26.20;;;;;;;0.26;78.94;97558.78;1750120;82;20934;-67
2021/03/22 05:52:15;;;;;;;34.00;24.87;;;;;;;0.26;79.20;97550.86;1750161;82;20950;-67
2021/03/22 05:55:00;;;;;;;22.17;18.85;;;;;;;0.27;79.33;97559.19;1750064;81;21038;-68
2021/03/22 05:58:05;;;;;;;19.95;17.07;;;;;;;0.31;79.34;97573.12;1750206;81;20922;-66
2021/03/22 06:00:55;;;;;;;17.25;15.40;;;;;;;0.33;79.24;97562.91;1750251;82;21375;-66
2021/03/22 06:03:31;;;;;;;18.98;16.55;;;;;;;0.38;79.11;97567.11;1750105;82;20938;-68
2021/03/22 06:06:21;;;;;;;21.15;18.85;;;;;;;0.39;79.20;97570.17;1750053;81;20930;-67
2021/03/22 06:09:08;;;;;;;22.20;17.92;;;;;;;0.42;79.10;97576.17;1749807;82;21357;-68
2021/03/22 06:11:51;;;;;;;18.40;16.40;;;;;;;0.46;79.09;97584.86;1750243;82;20886;-68
2021/03/22 06:14:45;;;;;;;24.50;19.70;;;;;;;0.49;78.97;97589.54;1750167;82;21335;-68
2021/03/22 06:17:20;;;;;;;22.62;18.42;;;;;;;0.51;78.86;97596.08;1750096;82;21017;-68
2021/03/22 06:19:56;;;;;;;24.27;20.02;;;;;;;0.52;78.79;97603.95;1746869;82;20938;-68
2021/03/22 06:22:30;;;;;;;20.50;17.15;;;;;;;0.56;78.76;97602.02;1750320;82;21049;-67
2021/03/22 06:24:59;;;;;;;21.68;16.93;;;;;;;0.58;78.62;97606.77;1750416;82;20974;-66
2021/03/22 06:27:28;;;;;;;20.85;18.55;;;;;;;0.60;78.63;97606.27;1750265;82;21361;-67
2021/03/22 06:29:56;;;;;;;20.62;17.55;;;;;;;0.59;78.57;97616.44;1750111;81;21494;-65
2021/03/22 06:32:31;;;;;;;26.45;20.90;;;;;;;0.59;78.68;97623.04;1750188;82;21062;-67
2021/03/22 06:35:08;;;;;;;19.23;16.30;;;;;;;0.62;78.42;97628.20;1750269;82;21465;-66
2021/03/22 06:37:37;;;;;;;20.85;17.15;;;;;;;0.64;78.47;97617.09;1750113;81;21002;-67
2021/03/22 06:40:30;;;;;;;23.42;19.02;;;;;;;0.65;78.52;97622.78;1750119;82;21109;-70
2021/03/22 06:43:08;;;;;;;21.60;17.77;;;;;;;0.67;78.46;97633.30;1750185;82;20978;-66
2021/03/22 06:45:45;;;;;;;20.88;18.25;;;;;;;0.69;78.59;97628.36;1750156;82;21001;-66
2021/03/22 06:48:30;;;;;;;16.55;14.53;;;;;;;0.71;78.66;97642.36;1749644;82;21041;-68
2021/03/22 06:51:10;;;;;;;20.70;17.80;;;;;;;0.74;78.71;97647.95;1750118;81;20899;-66
2021/03/22 06:53:45;;;;;;;18.87;16.48;;;;;;;0.77;78.58;97649.16;1750180;82;21375;-66
2021/03/22 06:56:25;;;;;;;22.07;18.95;;;;;;;0.79;78.72;97639.83;1750165;82;21458;-60
2021/03/22 06:59:17;;;;;;;19.95;17.55;;;;;;;0.81;78.50;97645.94;1750219;82;20954;-65
2021/03/22 07:01:50;;;;;;;18.55;16.60;;;;;;;0.81;78.45;97649.91;1750144;82;21056;-64
2021/03/22 07:04:30;;;;;;;20.23;17.40;;;;;;;0.80;78.65;97661.39;1749472;82;20985;-65
2021/03/22 07:07:16;;;;;;;18.70;16.50;;;;;;;0.80;78.60;97658.75;1742469;82;21383;-64
2021/03/22 07:09:57;;;;;;;15.10;13.20;;;;;;;0.81;78.71;97669.73;1742571;82;21117;-64
2021/03/22 07:12:35;;;;;;;16.67;14.95;;;;;;;0.80;78.88;97665.36;1742383;82;20926;-66
2021/03/22 07:15:26;;;;;;;14.85;13.18;;;;;;;0.81;78.90;97668.41;1742559;82;20930;-65
2021/03/22 07:18:05;;;;;;;17.85;15.23;;;;;;;0.81;78.87;97671.05;1742518;82;20954;-64
2021/03/22 07:20:35;;;;;;;17.32;14.45;;;;;;;0.84;78.64;97682.35;1738872;82;22420;-65
2021/03/22 07:23:30;;;;;;;17.55;15.65;;;;;;;0.83;78.76;97677.13;1740625;82;20996;-64
2021/03/22 07:26:32;;;;;;;15.78;14.18;;;;;;;0.87;78.69;97682.70;1707943;82;20975;-65
2021/03/22 07:29:23;;;;;;;17.20;15.40;;;;;;;0.86;78.88;97684.93;1740904;82;21051;-66
2021/03/22 07:32:31;;;;;;;16.48;14.60;;;;;;;0.90;78.95;97690.03;1741000;82;20897;-64
2021/03/22 07:35:50;;;;;;;16.57;14.50;;;;;;;0.90;78.99;97693.15;1741060;82;21217;-65
2021/03/22 07:38:30;;;;;;;15.68;13.53;;;;;;;0.91;79.19;97686.91;1740976;82;20987;-64
2021/03/22 07:41:09;;;;;;;13.18;10.88;;;;;;;0.87;79.49;97695.45;1740536;82;21019;-66
2021/03/22 07:44:06;;;;;;;17.50;14.18;;;;;;;0.83;79.54;97683.27;1711273;82;20980;-65
2021/03/22 07:47:07;;;;;;;15.48;12.63;;;;;;;0.85;79.44;97687.16;1836999;78;28032;-65
2021/03/22 07:50:08;;;;;;;14.78;12.65;;;;;;;0.81;79.63;97686.91;1809725;79;21321;-65
2021/03/22 07:52:40;;;;;;;17.07;15.08;;;;;;;0.79;79.86;97683.02;1801773;79;21337;-68
2021/03/22 07:55:43;;;;;;;15.20;10.33;;;;;;;0.79;79.66;97698.87;1809942;79;20933;-67
2021/03/22 07:58:38;;;;;;;14.28;11.30;;;;;;;0.78;79.69;97697.14;1809756;79;20873;-66
2021/03/22 08:01:14;;;;;;;15.30;13.03;;;;;;;0.78;79.34;97705.55;1809314;79;21081;-67
2021/03/22 08:04:24;;;;;;;14.07;11.18;;;;;;;0.80;79.01;97703.69;1809631;79;21015;-65
2021/03/22 08:07:31;;;;;;;14.18;10.32;;;;;;;0.77;78.38;97719.67;1809677;79;22363;-65
2021/03/22 08:10:24;;;;;;;12.33;10.03;;;;;;;0.77;77.97;97712.59;1809688;79;20921;-64
2021/03/22 08:13:27;;;;;;;13.40;9.95;;;;;;;0.79;77.39;97718.70;1800977;79;20885;-65
2021/03/22 08:16:27;;;;;;;12.45;10.85;;;;;;;0.76;76.74;97727.20;1809636;79;20937;-66
2021/03/22 08:19:28;;;;;;;11.57;9.20;;;;;;;0.80;76.89;97726.16;1809603;79;20996;-66
2021/03/22 08:22:33;;;;;;;11.53;9.30;;;;;;;0.82;76.76;97726.95;1809596;79;22135;-65
2021/03/22 08:25:16;;;;;;;9.95;8.28;;;;;;;0.81;76.36;97731.86;1809812;79;20936;-66
2021/03/22 08:28:11;;;;;;;10.70;9.60;;;;;;;0.81;76.13;97734.50;1803364;79;20969;-65
2021/03/22 08:31:08;;;;;;;9.85;7.37;;;;;;;0.83;76.06;97735.29;1777148;80;20942;-67
2021/03/22 08:33:56;;;;;;;8.10;6.78;;;;;;;0.86;75.56;97737.34;1777269;80;22128;-68
2021/03/22 08:36:46;;;;;;;8.15;6.53;;;;;;;0.91;75.06;97741.12;1777453;79;21951;-65
2021/03/22 08:39:31;;;;;;;9.48;6.55;;;;;;;0.97;74.85;97739.55;1777587;80;21512;-68
2021/03/22 08:42:18;;;;;;;9.78;8.65;;;;;;;1.03;74.85;97748.55;1777556;80;20901;-66
2021/03/22 08:44:57;;;;;;;10.20;8.03;;;;;;;1.10;74.36;97750.95;1776922;80;21509;-68
2021/03/22 08:47:58;;;;;;;9.25;7.15;;;;;;;1.10;74.23;97756.23;1730262;83;20993;-67
2021/03/22 08:50:31;;;;;;;7.70;5.62;;;;;;;1.12;74.35;97768.92;1709980;84;22286;-67
2021/03/22 08:53:03;;;;;;;7.97;6.70;;;;;;;1.20;74.68;97769.45;1709914;84;20953;-68
2021/03/22 08:55:49;;;;;;;8.15;5.97;;;;;;;1.24;74.47;97776.36;1766953;81;20954;-70
2021/03/22 08:58:31;;;;;;;8.43;6.92;;;;;;;1.28;73.75;97773.11;1744942;81;21007;-67
2021/03/22 09:01:37;;;;;;;5.53;4.92;;;;;;;1.28;73.37;97779.28;1766460;81;20945;-70
2021/03/22 09:04:32;;;;;;;8.48;6.28;;;;;;;1.34;73.16;97773.73;1766528;81;21436;-74
2021/03/22 09:07:14;;;;;;;5.00;4.50;;;;;;;1.39;72.34;97783.66;1766611;81;21387;-83
2021/03/22 09:36:07;;;;;;;;;;;;;;;1.65;68.01;97817.41;1820786;79;20924;-68
2021/03/22 09:45:52;;;;;;;5.60;3.45;;;;;;;1.79;68.08;97836.21;1814784;79;20995;-68
2021/03/22 09:48:23;;;;;;;4.20;2.80;;;;;;;1.88;66.39;97846.03;1817137;78;20900;-69
2021/03/22 09:54:39;;;;;;;5.12;2.50;;;;;;;2.06;65.49;97837.27;1818046;79;20916;-67
2021/03/22 09:57:40;;;;;;;4.10;2.40;;;;;;;2.20;64.07;97840.64;1818970;78;20932;-67
2021/03/22 10:34:24;;;;;;;2.55;1.12;;;;;;;2.60;52.77;97856.52;1799300;78;21016;-69
2021/03/22 10:36:52;;;;;;;2.00;1.30;;;;;;;2.50;51.49;97856.94;1795427;79;21087;-70
2021/03/22 10:39:34;;;;;;;3.70;1.25;;;;;;;2.53;53.16;97860.78;1729422;82;21376;-68
2021/03/22 10:42:04;;;;;;;1.32;0.98;;;;;;;2.58;54.51;97845.14;1795508;79;21016;-69
2021/03/22 10:44:37;;;;;;;1.37;0.90;;;;;;;2.63;51.52;97859.03;1707650;83;21537;-68
2021/03/22 10:47:11;;;;;;;2.50;1.42;;;;;;;2.66;52.67;97862.88;1771138;79;21016;-70
2021/03/22 10:49:40;;;;;;;1.82;1.15;;;;;;;2.70;53.26;97860.48;1730830;83;20949;-71
2021/03/22 10:52:30;;;;;;;2.35;1.20;;;;;;;2.67;51.53;97860.63;1796480;79;21379;-68
2021/03/22 10:54:58;;;;;;;3.02;1.77;;;;;;;2.68;52.53;97863.66;1730868;82;20945;-69
2021/03/22 10:57:37;;;;;;;3.62;1.90;;;;;;;2.68;53.76;97867.63;1771361;79;20930;-68
2021/03/22 11:00:35;;;;;;;2.58;1.55;;;;;;;2.66;53.34;97873.48;1730982;82;20941;-68
2021/03/22 11:03:06;;;;;;;1.82;0.95;;;;;;;2.65;54.18;97873.95;1730024;82;21021;-69
2021/03/22 11:05:38;;;;;;;1.47;1.07;;;;;;;2.60;52.61;97868.02;1773362;79;21144;-69
2021/03/22 11:08:30;;;;;;;2.60;1.17;;;;;;;2.56;52.32;97870.88;1796385;78;20933;-67
2021/03/22 11:11:17;;;;;;;3.05;1.37;;;;;;;2.49;51.78;97872.91;1731164;81;20961;-70
2021/03/22 11:13:48;;;;;;;5.10;1.47;;;;;;;2.49;52.00;97868.50;1797313;78;21008;-68
2021/03/22 11:16:31;;;;;;;7.95;1.85;;;;;;;2.49;53.81;97872.91;1796424;79;20909;-69
2021/03/22 11:19:11;;;;;;;;;;;;;;;2.52;52.83;97871.01;1799040;79;21364;-69
2021/03/22 11:21:39;;;;;;;3.12;1.12;;;;;;;2.60;53.29;97876.41;1796656;79;20390;-68
2021/03/22 11:24:16;;;;;;;5.05;1.65;;;;;;;2.68;54.38;97867.63;1772642;79;21326;-69
2021/03/22 11:27:03;;;;;;;1.05;0.62;;;;;;;2.71;51.42;97880.75;1731007;81;21452;-69
2021/03/22 11:29:32;;;;;;;2.47;0.60;;;;;;;2.74;49.37;97883.27;1795196;79;21016;-70
2021/03/22 11:32:05;;;;;;;2.17;1.10;;;;;;;2.73;50.64;97886.87;1730979;82;21421;-68
2021/03/22 11:34:44;;;;;;;3.35;1.20;;;;;;;2.74;49.93;97885.06;1730728;83;21465;-69
2021/03/22 11:37:25;;;;;;;1.75;0.82;;;;;;;2.67;50.23;97876.54;1796211;79;20977;-69
2021/03/22 11:40:10;;;;;;;2.10;1.10;;;;;;;2.67;49.39;97885.34;1796640;79;20949;-69
2021/03/22 11:42:57;;;;;;;2.60;1.82;;;;;;;2.64;50.13;97886.81;1730717;82;20961;-69
2021/03/22 11:45:39;;;;;;;4.17;2.05;;;;;;;2.64;51.08;97883.31;1796448;79;21410;-69
2021/03/22 11:48:26;;;;;;;2.95;1.30;;;;;;;2.62;51.07;97899.77;1731380;82;20914;-69
2021/03/22 11:51:08;;;;;;;3.15;1.80;;;;;;;2.62;50.81;97894.45;1730917;83;21009;-69
2021/03/22 11:54:08;;;;;;;2.85;1.10;;;;;;;2.59;50.61;97897.25;1730601;82;20977;-70
2021/03/22 11:56:38;;;;;;;2.05;1.45;;;;;;;2.56;50.26;97896.91;1795895;80;21370;-69
2021/03/22 11:59:24;;;;;;;2.20;1.17;;;;;;;2.55;50.25;97897.83;1794326;79;21195;-70
2021/03/22 12:02:18;;;;;;;1.98;1.00;;;;;;;2.57;50.05;97891.13;1796334;80;21548;-71
2021/03/22 12:05:06;;;;;;;3.08;0.80;;;;;;;2.57;48.75;97888.03;1796451;79;21004;-70
2021/03/22 12:07:45;;;;;;;2.60;1.35;;;;;;;2.58;48.32;97890.21;1730715;83;20957;-70
2021/03/22 12:10:21;;;;;;;2.72;0.90;;;;;;;2.55;47.57;97893.00;1796205;79;20993;-68
2021/03/22 12:12:55;;;;;;;1.95;1.42;;;;;;;2.56;47.99;97900.89;1796174;79;21201;-68
2021/03/22 12:15:25;;;;;;;3.37;1.17;;;;;;;2.58;48.59;97898.16;1731043;83;21542;-68
2021/03/22 12:17:59;;;;;;;1.95;1.00;;;;;;;2.60;48.20;97896.30;1796255;80;20985;-69
2021/03/22 12:20:30;;;;;;;1.50;1.00;;;;;;;2.64;48.41;97903.20;1796519;79;20929;-70
2021/03/22 12:22:59;;;;;;;0.98;0.80;;;;;;;2.65;47.05;97902.24;1730427;83;20894;-70
2021/03/22 12:25:29;;;;;;;1.67;1.00;;;;;;;2.66;45.97;97906.63;1730698;83;22621;-70
2021/03/22 12:27:56;;;;;;;2.00;1.20;;;;;;;2.67;45.11;97900.41;1796396;78;21414;-70
2021/03/22 12:30:27;;;;;;;1.95;1.20;;;;;;;2.67;46.03;97908.36;1772296;80;21441;-70
2021/03/22 12:32:55;;;;;;;1.60;0.80;;;;;;;2.68;45.79;97901.66;1731664;81;21000;-69
2021/03/22 12:35:33;;;;;;;2.98;1.17;;;;;;;2.68;43.79;97902.10;1796389;78;21012;-70
2021/03/22 12:38:04;;;;;;;2.25;0.93;;;;;;;2.70;45.78;97902.44;1750155;81;22296;-69
2021/03/22 12:40:32;;;;;;;1.10;0.88;;;;;;;2.71;44.19;97900.20;1749926;82;21496;-69
2021/03/22 12:43:00;;;;;;;3.58;1.10;;;;;;;2.75;43.74;97900.91;1809163;78;20925;-69
2021/03/22 12:45:36;;;;;;;1.50;0.95;;;;;;;2.78;43.36;97898.59;1751081;82;20962;-68
2021/03/22 12:48:08;;;;;;;2.62;0.98;;;;;;;2.77;43.96;97906.14;1810090;79;21000;-69
2021/03/22 12:50:39;;;;;;;2.67;1.15;;;;;;;2.81;44.95;97904.61;1817884;79;22261;-69
2021/03/22 12:53:10;;;;;;;4.20;1.50;;;;;;;2.80;44.60;97904.68;1816923;78;20940;-70
2021/03/22 12:55:39;;;;;;;6.58;2.60;;;;;;;2.80;45.92;97905.53;1750206;82;20948;-69
2021/03/22 12:58:18;;;;;;;3.45;1.22;;;;;;;2.80;46.61;97911.31;1809032;78;21473;-70
2021/03/22 13:00:46;;;;;;;1.67;1.00;;;;;;;2.81;44.73;97925.83;1808456;79;21004;-69
2021/03/22 13:03:22;;;;;;;3.08;1.30;;;;;;;2.81;43.37;97911.23;1749889;82;21389;-68
2021/03/22 13:05:53;;;;;;;4.05;1.80;;;;;;;2.79;44.29;97910.91;1780842;80;20977;-69
2021/03/22 13:08:25;;;;;;;3.33;1.60;;;;;;;2.74;44.92;97919.06;1750071;82;21957;-69
2021/03/22 13:10:58;;;;;;;4.33;1.32;;;;;;;2.68;44.56;97916.69;1749848;82;21000;-69
2021/03/22 13:13:25;;;;;;;2.87;1.17;;;;;;;2.73;44.93;97918.69;1750076;81;20984;-70
2021/03/22 13:15:57;;;;;;;2.45;1.00;;;;;;;2.76;44.50;97911.92;1749821;82;21223;-70
2021/03/22 13:18:28;;;;;;;3.15;0.90;;;;;;;2.81;43.77;97916.55;1750038;82;21452;-70
2021/03/22 13:21:11;;;;;;;3.55;0.80;;;;;;;2.83;42.92;97909.37;1727014;82;20953;-70
2021/03/22 13:23:39;;;;;;;3.72;0.80;;;;;;;2.86;43.02;97909.23;1749966;82;20953;-70
2021/03/22 13:26:09;;;;;;;2.80;1.00;;;;;;;2.91;43.61;97916.12;1749422;82;21496;-69
2021/03/22 13:28:39;;;;;;;2.35;0.98;;;;;;;2.95;44.23;97915.91;1749880;82;21376;-70
2021/03/22 13:31:11;;;;;;;2.02;0.70;;;;;;;2.98;41.14;97922.85;1749905;81;20964;-69
2021/03/22 13:33:42;;;;;;;1.32;0.72;;;;;;;2.98;41.69;97922.85;1749306;82;20936;-69
2021/03/22 13:36:16;;;;;;;6.05;0.98;;;;;;;3.01;42.53;97922.71;1746101;82;21012;-70
2021/03/22 13:38:47;;;;;;;4.40;1.00;;;;;;;3.04;41.27;97911.95;1796926;79;20965;-71
2021/03/22 13:41:36;;;;;;;0.98;0.72;;;;;;;3.08;42.47;97921.51;1796498;79;21199;-68
2021/03/22 13:44:06;;;;;;;1.77;1.12;;;;;;;3.11;42.44;97922.69;1731537;82;20999;-71